createdAt,value
2022-10-08T00:03:56.224Z,81.36
2022-10-08T00:09:02.203Z,81.30
2022-10-08T00:14:05.858Z,81.44
2022-10-08T00:19:11.963Z,81.42
2022-10-08T00:24:18.275Z,81.93
2022-10-08T00:29:22.551Z,82.19
2022-10-08T00:34:25.473Z,82.63
2022-10-08T00:39:29.619Z,82.32
2022-10-08T00:44:55.054Z,82.21
2022-10-08T00:50:00.204Z,82.84
2022-10-08T00:55:07.439Z,82.79
2022-10-08T01:00:14.305Z,83.65
2022-10-08T01:05:20.670Z,83.86
2022-10-08T01:10:34.005Z,84.36
2022-10-08T01:15:42.474Z,84.55
2022-10-08T01:20:53.135Z,84.45
2022-10-08T01:26:04.824Z,84.46
2022-10-08T01:31:12.462Z,83.65
2022-10-08T01:36:18.489Z,84.00
2022-10-08T01:41:25.234Z,84.57
2022-10-08T01:46:32.725Z,84.76
2022-10-08T01:51:41.805Z,84.86
2022-10-08T01:56:47.060Z,85.48
2022-10-08T02:01:56.412Z,85.78
2022-10-08T02:07:02.072Z,85.85
2022-10-08T02:12:05.991Z,86.04
2022-10-08T02:17:23.780Z,85.38
2022-10-08T02:22:34.257Z,84.08
2022-10-08T02:27:45.309Z,83.46
2022-10-08T02:33:09.849Z,82.51
2022-10-08T02:38:18.426Z,83.33
2022-10-08T02:43:25.581Z,84.43
2022-10-08T02:48:32.611Z,84.61
2022-10-08T02:53:39.052Z,84.75
2022-10-08T02:58:43.141Z,83.98
2022-10-08T03:03:53.628Z,83.69
2022-10-08T03:08:59.096Z,83.21
2022-10-08T03:14:05.508Z,83.68
2022-10-08T03:19:12.230Z,83.81
2022-10-08T03:24:16.719Z,83.70
2022-10-08T03:29:19.515Z,83.29
2022-10-08T03:34:25.669Z,83.49
2022-10-08T03:39:28.422Z,84.18
2022-10-08T03:44:31.184Z,82.93
2022-10-08T03:49:35.794Z,84.84
2022-10-08T03:54:39.058Z,85.90
2022-10-08T03:59:41.763Z,86.14
2022-10-08T04:04:45.842Z,86.48
2022-10-08T04:09:48.644Z,88.39
2022-10-08T04:14:51.387Z,89.34
2022-10-08T04:19:57.206Z,89.11
2022-10-08T04:25:00.017Z,88.98
2022-10-08T04:30:02.783Z,88.19
2022-10-08T04:35:10.620Z,87.69
2022-10-08T04:40:13.359Z,88.33
2022-10-08T04:45:16.219Z,88.22
2022-10-08T04:50:20.421Z,88.75
2022-10-08T04:55:24.777Z,89.45
2022-10-08T05:00:27.997Z,90.27
2022-10-08T05:05:32.133Z,90.94
2022-10-08T05:10:35.190Z,90.41
2022-10-08T05:15:37.935Z,90.74
2022-10-08T05:20:42.128Z,91.20
2022-10-08T05:25:44.855Z,89.88
2022-10-08T05:30:47.633Z,91.40
2022-10-08T05:35:52.125Z,91.11
2022-10-08T05:40:54.822Z,91.32
2022-10-08T05:45:58.888Z,90.58
2022-10-08T05:51:07.626Z,91.88
2022-10-08T05:56:12.977Z,91.82
2022-10-08T06:01:17.342Z,93.43
2022-10-08T06:06:22.713Z,93.05
2022-10-08T06:11:25.728Z,92.47
2022-10-08T06:16:30.667Z,92.83
2022-10-08T06:21:35.919Z,92.16
2022-10-08T06:26:40.440Z,92.35
2022-10-08T06:31:45.601Z,92.22
2022-10-08T06:36:50.037Z,92.76
2022-10-08T06:41:52.828Z,93.75
2022-10-08T06:46:56.494Z,92.62
2022-10-08T06:52:00.656Z,93.04
2022-10-08T06:57:03.405Z,93.65
2022-10-08T07:02:06.209Z,94.96
2022-10-08T07:07:10.329Z,88.19
2022-10-08T07:12:14.766Z,75.48
2022-10-08T07:17:17.657Z,75.79
2022-10-08T07:22:22.155Z,80.07
2022-10-08T07:27:24.939Z,83.42
2022-10-08T07:32:27.703Z,84.92
2022-10-08T07:37:31.801Z,86.19
2022-10-08T07:42:34.664Z,87.30
2022-10-08T07:47:37.454Z,86.83
2022-10-08T07:52:41.582Z,87.44
2022-10-08T07:57:44.303Z,86.14
2022-10-08T08:02:49.366Z,83.80
2022-10-08T08:07:53.807Z,83.33
2022-10-08T08:12:56.552Z,81.44
2022-10-08T08:17:59.571Z,81.07
2022-10-08T08:23:03.650Z,82.37
2022-10-08T08:28:06.469Z,80.29
2022-10-08T08:33:09.250Z,80.79
2022-10-08T08:38:13.393Z,80.03
2022-10-08T08:43:16.750Z,79.91
2022-10-08T08:48:24.425Z,80.73
2022-10-08T08:53:29.013Z,78.98
2022-10-08T08:58:37.357Z,78.62
2022-10-08T09:03:43.753Z,73.52
2022-10-08T09:08:51.936Z,73.59
2022-10-08T09:13:57.599Z,75.43
2022-10-08T09:19:00.476Z,78.67
2022-10-08T09:24:04.727Z,79.64
2022-10-08T09:29:07.500Z,77.96
2022-10-08T09:34:18.812Z,75.98
2022-10-08T09:39:25.113Z,76.13
2022-10-08T09:44:27.924Z,74.48
2022-10-08T09:49:32.825Z,72.28
2022-10-08T09:54:43.234Z,71.19
2022-10-08T09:59:52.388Z,70.93
2022-10-08T10:04:56.514Z,69.14
2022-10-08T10:10:03.441Z,69.35
2022-10-08T10:15:16.187Z,67.33
2022-10-08T10:20:23.181Z,66.39
2022-10-08T10:25:35.792Z,66.34
2022-10-08T10:30:50.958Z,66.03
2022-10-08T10:35:56.967Z,66.36
2022-10-08T10:41:12.513Z,65.10
2022-10-08T10:46:32.522Z,64.78
2022-10-08T10:51:57.971Z,63.81
2022-10-08T10:57:05.957Z,62.83
2022-10-08T11:02:17.860Z,61.83
2022-10-08T11:07:50.741Z,62.89
2022-10-08T11:13:01.284Z,63.57
2022-10-08T11:18:19.017Z,69.64
2022-10-08T11:23:36.172Z,76.56
2022-10-08T11:28:50.228Z,79.34
2022-10-08T11:33:56.785Z,79.48
2022-10-08T11:39:11.669Z,83.33
2022-10-08T11:44:18.176Z,83.00
2022-10-08T11:49:50.797Z,78.56
2022-10-08T11:54:55.964Z,76.37
2022-10-08T12:00:08.319Z,76.76
2022-10-08T12:05:30.366Z,78.17
2022-10-08T12:10:34.850Z,78.50
2022-10-08T12:16:06.861Z,77.02
2022-10-08T12:21:54.039Z,76.48
2022-10-08T12:27:41.237Z,77.48
2022-10-08T12:32:58.123Z,72.35
2022-10-08T12:38:09.902Z,71.11
2022-10-08T12:43:22.280Z,71.33
2022-10-08T12:48:36.075Z,71.82
2022-10-08T12:53:44.787Z,71.22
2022-10-08T12:58:49.394Z,70.74
2022-10-08T13:04:17.026Z,71.80
2022-10-08T13:09:27.089Z,70.41
2022-10-08T13:14:33.252Z,69.64
2022-10-08T13:19:39.299Z,68.64
2022-10-08T13:24:44.057Z,68.29
2022-10-08T13:29:46.827Z,67.22
2022-10-08T13:34:53.215Z,71.22
2022-10-08T13:39:57.508Z,72.08
2022-10-08T13:45:01.566Z,73.56
2022-10-08T13:50:06.256Z,74.47
2022-10-08T13:55:22.426Z,75.25
2022-10-08T14:00:25.437Z,77.66
2022-10-08T14:05:31.578Z,79.00
2022-10-08T14:10:34.567Z,79.41
2022-10-08T14:15:37.299Z,80.57
2022-10-08T14:20:41.611Z,81.79
2022-10-08T14:25:44.411Z,82.72
2022-10-08T14:30:47.200Z,83.05
2022-10-08T14:35:54.394Z,84.95
2022-10-08T14:41:00.619Z,86.11
2022-10-08T14:46:03.606Z,86.80
2022-10-08T14:51:08.159Z,83.31
2022-10-08T14:56:12.753Z,80.79
2022-10-08T15:01:15.869Z,77.40
2022-10-08T15:06:20.621Z,77.14
2022-10-08T15:11:23.448Z,77.09
2022-10-08T15:16:26.394Z,76.61
2022-10-08T15:21:30.647Z,77.46
2022-10-08T15:26:33.566Z,78.78
2022-10-08T15:31:36.369Z,78.96
2022-10-08T15:36:40.463Z,78.29
2022-10-08T15:41:44.811Z,78.92
2022-10-08T15:46:47.855Z,78.82
2022-10-08T15:51:51.926Z,79.68
2022-10-08T15:56:54.849Z,81.61
2022-10-08T16:01:58.014Z,86.36
2022-10-08T16:07:02.173Z,88.59
2022-10-08T16:12:05.326Z,90.26
2022-10-08T16:17:08.726Z,89.30
2022-10-08T16:22:12.842Z,91.50
2022-10-08T16:27:15.857Z,91.60
2022-10-08T16:32:18.637Z,93.39
2022-10-08T16:37:22.806Z,93.76
2022-10-08T16:42:25.838Z,94.21
2022-10-08T16:47:28.937Z,99.24
2022-10-08T16:52:33.514Z,99.08
2022-10-08T16:57:36.294Z,100.00
2022-10-08T17:02:39.050Z,100.00
2022-10-08T17:07:43.499Z,100.00
2022-10-08T17:12:46.837Z,100.00
2022-10-08T17:17:54.646Z,100.00
2022-10-08T17:22:59.724Z,100.00
2022-10-08T17:28:02.602Z,100.00
2022-10-08T17:33:05.533Z,100.00
2022-10-08T17:38:09.776Z,100.00
2022-10-08T17:43:12.680Z,100.00
2022-10-08T17:48:15.481Z,100.00
2022-10-08T17:53:19.680Z,100.00
2022-10-08T17:58:22.445Z,100.00
2022-10-08T18:03:25.363Z,100.00
2022-10-08T18:08:29.613Z,100.00
2022-10-08T18:13:33.594Z,100.00
2022-10-08T18:18:36.979Z,100.00
2022-10-08T18:23:42.896Z,100.00
2022-10-08T18:28:48.213Z,100.00
2022-10-08T18:33:52.708Z,100.00
2022-10-08T18:38:58.791Z,100.00
2022-10-08T18:44:04.425Z,100.00
2022-10-08T18:49:08.278Z,100.00
2022-10-08T18:54:13.300Z,100.00
2022-10-08T18:59:17.436Z,100.00
2022-10-08T19:04:24.029Z,100.00
2022-10-08T19:09:28.355Z,100.00
2022-10-08T19:14:31.097Z,100.00
2022-10-08T19:19:33.973Z,100.00
2022-10-08T19:24:41.033Z,100.00
2022-10-08T19:29:44.192Z,100.00
2022-10-08T19:34:47.045Z,100.00
2022-10-08T19:39:51.286Z,100.00
2022-10-08T19:44:54.158Z,100.00
2022-10-08T19:49:57.770Z,100.00
2022-10-08T19:55:02.013Z,100.00
2022-10-08T20:00:05.942Z,100.00
2022-10-08T20:05:09.739Z,100.00
2022-10-08T20:10:16.586Z,100.00
2022-10-08T20:15:19.436Z,100.00
2022-10-08T20:20:33.029Z,100.00
2022-10-08T20:25:37.677Z,100.00
2022-10-08T20:30:42.770Z,100.00
2022-10-08T20:35:45.615Z,100.00
2022-10-08T20:40:49.820Z,100.00
2022-10-08T20:45:52.621Z,100.00
2022-10-08T20:50:55.413Z,100.00
2022-10-08T20:56:03.916Z,100.00
2022-10-08T21:01:08.978Z,100.00
2022-10-08T21:06:14.696Z,100.00
2022-10-08T21:11:21.111Z,100.00
2022-10-08T21:16:25.662Z,100.00
2022-10-08T21:21:30.279Z,100.00
2022-10-08T21:26:36.568Z,100.00
2022-10-08T21:31:41.087Z,100.00
2022-10-08T21:36:44.658Z,100.00
2022-10-08T21:41:51.830Z,100.00
2022-10-08T21:46:54.653Z,100.00
2022-10-08T21:51:58.275Z,100.00
2022-10-08T21:57:02.413Z,100.00
2022-10-08T22:02:05.285Z,100.00
2022-10-08T22:07:08.034Z,100.00
2022-10-08T22:12:12.233Z,100.00
2022-10-08T22:17:15.131Z,100.00
2022-10-08T22:22:17.910Z,100.00
2022-10-08T22:27:21.905Z,100.00
2022-10-08T22:32:24.862Z,100.00
2022-10-08T22:37:27.641Z,100.00
2022-10-08T22:42:31.799Z,100.00
2022-10-08T22:47:34.545Z,100.00
2022-10-08T22:52:37.263Z,100.00
2022-10-08T22:57:41.616Z,100.00
2022-10-08T23:02:44.331Z,100.00
2022-10-08T23:07:47.086Z,100.00
2022-10-08T23:12:52.618Z,100.00
2022-10-08T23:17:55.404Z,100.00
2022-10-08T23:22:58.188Z,100.00
2022-10-08T23:28:02.320Z,100.00
2022-10-08T23:33:05.320Z,100.00
2022-10-08T23:38:10.539Z,100.00
2022-10-08T23:43:14.685Z,100.00
2022-10-08T23:48:17.493Z,100.00
2022-10-08T23:53:21.602Z,100.00
2022-10-08T23:58:25.835Z,100.00
